createdAt,value
2018-12-20T00:03:12.584Z,4.00
2018-12-20T00:08:16.016Z,4.40
2018-12-20T00:13:19.400Z,7.00
2018-12-20T00:18:22.977Z,4.50
2018-12-20T00:23:26.312Z,4.00
2018-12-20T00:28:29.593Z,8.40
2018-12-20T00:33:32.885Z,5.00
2018-12-20T00:38:36.331Z,3.75
2018-12-20T00:43:39.660Z,5.00
2018-12-20T00:48:42.986Z,3.25
2018-12-20T00:53:46.336Z,4.00
2018-12-20T00:58:49.745Z,3.00
2018-12-20T01:03:53.239Z,7.00
2018-12-20T01:08:56.621Z,4.00
2018-12-20T01:13:59.894Z,4.75
2018-12-20T01:19:03.273Z,3.50
2018-12-20T01:24:06.714Z,5.00
2018-12-20T01:29:10.080Z,4.00
2018-12-20T01:34:13.498Z,4.00
2018-12-20T01:39:16.868Z,4.00
2018-12-20T01:44:20.293Z,3.40
2018-12-20T01:49:23.801Z,4.25
2018-12-20T01:54:27.115Z,3.25
2018-12-20T01:59:30.566Z,3.00
2018-12-20T02:04:34.039Z,3.00
2018-12-20T02:09:37.468Z,3.25
2018-12-20T02:14:40.963Z,4.00
2018-12-20T02:19:44.326Z,4.00
2018-12-20T02:24:47.782Z,4.00
2018-12-20T02:29:51.217Z,3.25
2018-12-20T02:34:54.679Z,3.00
2018-12-20T02:39:58.042Z,3.00
2018-12-20T02:45:01.376Z,2.50
2018-12-20T02:50:06.751Z,3.00
2018-12-20T02:55:10.033Z,3.20
2018-12-20T03:00:13.644Z,3.00
2018-12-20T03:05:17.253Z,4.00
2018-12-20T03:10:20.792Z,4.00
2018-12-20T03:15:24.100Z,2.60
2018-12-20T03:20:27.373Z,3.00
2018-12-20T03:25:30.646Z,3.00
2018-12-20T03:30:33.966Z,3.00
2018-12-20T03:35:37.252Z,4.75
2018-12-20T03:40:40.577Z,3.00
2018-12-20T03:45:44.083Z,4.00
2018-12-20T03:50:47.495Z,4.00
2018-12-20T03:55:50.917Z,3.00
2018-12-20T04:00:54.269Z,3.50
2018-12-20T04:05:57.832Z,3.00
2018-12-20T04:11:01.479Z,2.00
2018-12-20T04:16:04.996Z,3.00
2018-12-20T04:21:08.402Z,2.00
2018-12-20T04:26:11.793Z,3.00
2018-12-20T04:31:15.077Z,3.50
2018-12-20T04:36:18.568Z,2.80
2018-12-20T04:41:22.002Z,2.00
2018-12-20T04:46:25.490Z,3.00
2018-12-20T04:51:28.830Z,3.25
2018-12-20T04:56:32.204Z,3.00
2018-12-20T05:01:35.637Z,3.00
2018-12-20T05:06:39.038Z,2.00
2018-12-20T05:11:42.519Z,2.00
2018-12-20T05:16:46.044Z,2.60
2018-12-20T05:21:49.460Z,2.75
2018-12-20T05:26:52.866Z,3.00
2018-12-20T05:31:56.333Z,3.50
2018-12-20T05:36:59.778Z,3.00
2018-12-20T05:42:03.577Z,3.00
2018-12-20T05:47:07.029Z,2.75
2018-12-20T05:52:10.319Z,4.00
2018-12-20T05:57:13.700Z,2.00
2018-12-20T06:02:17.162Z,3.00
2018-12-20T06:07:20.530Z,3.40
2018-12-20T06:12:23.941Z,2.75
2018-12-20T06:17:27.543Z,2.75
2018-12-20T06:22:30.944Z,3.20
2018-12-20T06:27:34.466Z,2.00
2018-12-20T06:32:37.767Z,2.00
2018-12-20T06:37:41.068Z,2.00
2018-12-20T06:42:44.357Z,2.00
2018-12-20T06:47:47.644Z,2.80
2018-12-20T06:52:50.928Z,2.00
2018-12-20T06:57:54.218Z,2.00
2018-12-20T07:02:57.588Z,2.50
2018-12-20T07:08:00.873Z,3.00
2018-12-20T07:13:05.430Z,2.00
2018-12-20T07:18:08.910Z,2.00
2018-12-20T07:23:12.205Z,2.75
2018-12-20T07:28:15.572Z,2.00
2018-12-20T07:33:18.865Z,2.00
2018-12-20T07:38:22.148Z,4.00
2018-12-20T07:43:25.450Z,2.25
2018-12-20T07:48:32.271Z,2.80
2018-12-20T07:53:34.064Z,3.00
2018-12-20T07:58:37.344Z,2.00
2018-12-20T08:03:40.675Z,30.50
2018-12-20T08:08:44.016Z,34.60
2018-12-20T08:13:47.292Z,31.50
2018-12-20T08:18:50.575Z,26.50
2018-12-20T08:23:53.873Z,27.60
2018-12-20T08:28:57.161Z,24.75
2018-12-20T08:34:00.453Z,20.75
2018-12-20T08:39:08.502Z,18.20
2018-12-20T08:44:11.778Z,17.80
2018-12-20T08:49:15.057Z,17.00
2018-12-20T08:59:27.929Z,15.80
2018-12-20T09:04:31.236Z,14.40
2018-12-20T09:09:34.821Z,13.00
2018-12-20T09:14:38.133Z,21.25
2018-12-20T09:19:41.428Z,30.00
2018-12-20T09:24:44.719Z,36.50
2018-12-20T09:29:48.008Z,73.75
2018-12-20T09:34:51.280Z,81.25
2018-12-20T09:39:54.573Z,80.00
2018-12-20T09:44:57.889Z,88.00
2018-12-20T09:50:01.181Z,93.50
2018-12-20T09:55:04.730Z,96.75
2018-12-20T10:00:09.894Z,95.75
2018-12-20T10:05:13.172Z,91.25
2018-12-20T10:10:16.465Z,91.00
2018-12-20T10:15:19.759Z,87.67
2018-12-20T10:20:23.093Z,84.25
2018-12-20T10:25:26.381Z,85.75
2018-12-20T10:30:29.668Z,86.75
2018-12-20T10:35:32.969Z,86.25
2018-12-20T10:40:36.274Z,81.75
2018-12-20T10:45:39.586Z,83.80
2018-12-20T10:50:42.882Z,84.00
2018-12-20T10:55:46.157Z,82.00
2018-12-20T11:00:54.915Z,84.50
2018-12-20T11:06:04.255Z,83.00
2018-12-20T11:11:09.504Z,81.75
2018-12-20T11:16:12.797Z,81.80
2018-12-20T11:21:16.296Z,81.00
2018-12-20T11:26:19.605Z,77.40
2018-12-20T11:31:22.913Z,81.20
2018-12-20T11:36:26.221Z,78.00
2018-12-20T11:41:29.737Z,78.40
2018-12-20T11:46:33.020Z,78.00
2018-12-20T11:51:36.321Z,79.00
2018-12-20T11:56:39.628Z,75.00
2018-12-20T12:01:42.918Z,74.25
2018-12-20T12:06:46.637Z,78.25
2018-12-20T12:11:49.948Z,78.20
2018-12-20T12:16:53.245Z,78.25
2018-12-20T12:21:56.555Z,75.40
2018-12-20T12:26:59.844Z,76.20
2018-12-20T12:32:03.154Z,74.00
2018-12-20T12:37:06.544Z,75.60
2018-12-20T12:42:09.918Z,73.25
2018-12-20T12:47:13.219Z,75.50
2018-12-20T12:52:16.509Z,73.25
2018-12-20T12:57:22.155Z,73.00
2018-12-20T13:02:25.127Z,73.00
2018-12-20T13:07:28.445Z,72.20
2018-12-20T13:12:31.753Z,73.00
2018-12-20T13:17:35.045Z,70.50
2018-12-20T13:22:38.339Z,72.00
2018-12-20T13:27:41.650Z,72.80
2018-12-20T13:32:44.969Z,72.75
2018-12-20T13:37:48.414Z,70.50
2018-12-20T13:42:51.787Z,70.80
2018-12-20T13:47:55.140Z,70.50
2018-12-20T13:52:59.009Z,68.50
2018-12-20T13:58:02.366Z,70.00
2018-12-20T14:03:05.748Z,69.00
2018-12-20T14:08:09.174Z,71.25
2018-12-20T14:13:12.483Z,66.50
2018-12-20T14:18:15.799Z,65.75
2018-12-20T14:23:19.177Z,66.50
2018-12-20T14:28:22.524Z,69.00
2018-12-20T14:33:25.822Z,66.50
2018-12-20T14:38:29.113Z,66.00
2018-12-20T14:43:32.412Z,67.25
2018-12-20T14:48:39.551Z,66.20
2018-12-20T14:53:41.185Z,66.25
2018-12-20T14:58:44.666Z,64.75
2018-12-20T15:03:48.039Z,65.00
2018-12-20T15:08:51.386Z,77.75
2018-12-20T15:13:54.746Z,72.80
2018-12-20T15:18:58.076Z,70.80
2018-12-20T15:24:01.460Z,71.75
2018-12-20T15:29:04.957Z,71.50
2018-12-20T15:34:08.328Z,70.75
2018-12-20T15:39:12.025Z,71.40
2018-12-20T15:44:15.342Z,66.25
2018-12-20T15:49:18.665Z,67.25
2018-12-20T15:54:21.961Z,67.00
2018-12-20T15:59:25.856Z,65.20
2018-12-20T16:04:29.706Z,62.40
2018-12-20T16:09:33.209Z,63.00
2018-12-20T16:14:36.624Z,65.50
2018-12-20T16:19:39.919Z,62.25
2018-12-20T16:24:43.216Z,64.50
2018-12-20T16:29:46.548Z,61.50
2018-12-20T16:34:49.872Z,60.75
2018-12-20T16:39:53.212Z,62.00
2018-12-20T16:44:56.612Z,63.25
2018-12-20T16:49:59.926Z,60.00
2018-12-20T16:55:03.341Z,57.50
2018-12-20T17:00:08.642Z,61.75
2018-12-20T17:05:12.002Z,58.00
2018-12-20T17:10:15.376Z,61.25
2018-12-20T17:15:18.706Z,60.00
2018-12-20T17:20:22.009Z,57.67
2018-12-20T17:25:25.321Z,58.00
2018-12-20T17:30:28.698Z,55.75
2018-12-20T17:35:32.000Z,54.60
2018-12-20T17:40:35.328Z,57.50
2018-12-20T17:45:38.634Z,54.50
2018-12-20T17:50:41.944Z,54.25
2018-12-20T17:55:45.257Z,51.50
2018-12-20T18:00:48.592Z,56.00
2018-12-20T18:05:51.951Z,50.75
2018-12-20T18:10:55.248Z,53.50
2018-12-20T18:15:58.735Z,49.75
2018-12-20T18:21:02.154Z,87.20
2018-12-20T18:26:07.278Z,72.80
2018-12-20T18:31:12.319Z,69.75
2018-12-20T18:36:17.656Z,68.00
2018-12-20T18:41:22.709Z,64.75
2018-12-20T18:46:29.125Z,63.25
2018-12-20T18:51:32.469Z,61.25
2018-12-20T18:56:35.780Z,59.75
2018-12-20T19:01:39.083Z,60.00
2018-12-20T19:06:42.389Z,58.20
2018-12-20T19:11:45.709Z,59.80
2018-12-20T19:16:49.078Z,58.50
2018-12-20T19:21:53.005Z,55.75
2018-12-20T19:26:56.294Z,58.00
2018-12-20T19:31:59.649Z,55.75
2018-12-20T19:37:03.133Z,56.75
2018-12-20T19:42:11.866Z,53.00
2018-12-20T19:47:16.809Z,51.50
2018-12-20T19:52:21.966Z,50.00
2018-12-20T19:57:27.228Z,52.75
2018-12-20T20:02:32.381Z,47.00
2018-12-20T20:07:37.732Z,48.80
2018-12-20T20:12:42.798Z,53.00
2018-12-20T20:17:47.837Z,50.00
2018-12-20T20:22:52.782Z,44.00
2018-12-20T20:27:57.890Z,45.80
2018-12-20T20:33:01.206Z,48.00
2018-12-20T20:38:04.502Z,42.00
2018-12-20T20:43:07.806Z,48.25
2018-12-20T20:48:11.126Z,46.50
2018-12-20T20:53:14.494Z,42.25
2018-12-20T20:58:17.793Z,40.60
2018-12-20T21:03:21.104Z,38.40
2018-12-20T21:08:24.404Z,41.50
2018-12-20T21:13:27.824Z,40.00
2018-12-20T21:18:31.124Z,40.50
2018-12-20T21:23:34.422Z,42.25
2018-12-20T21:28:37.732Z,38.60
2018-12-20T21:33:41.034Z,40.40
2018-12-20T21:38:44.325Z,40.25
2018-12-20T21:43:47.613Z,37.75
2018-12-20T21:48:50.909Z,35.20
2018-12-20T21:53:55.027Z,35.00
2018-12-20T21:58:58.645Z,32.20
2018-12-20T22:04:01.934Z,34.50
2018-12-20T22:09:06.855Z,35.50
2018-12-20T22:14:10.212Z,32.60
2018-12-20T22:19:13.586Z,32.75
2018-12-20T22:24:16.888Z,32.20
2018-12-20T22:29:20.177Z,34.50
2018-12-20T22:34:23.465Z,33.25
2018-12-20T22:39:26.797Z,34.40
2018-12-20T22:44:30.093Z,33.20
2018-12-20T22:49:33.398Z,30.00
2018-12-20T22:54:36.694Z,33.25
2018-12-20T22:59:39.984Z,31.60
2018-12-20T23:04:43.277Z,29.50
2018-12-20T23:09:46.598Z,30.00
2018-12-20T23:14:49.927Z,31.00
2018-12-20T23:19:53.257Z,30.00
2018-12-20T23:24:56.591Z,29.75
2018-12-20T23:29:59.914Z,30.50
2018-12-20T23:35:03.424Z,27.00
2018-12-20T23:40:06.764Z,29.00
2018-12-20T23:45:10.097Z,32.40
2018-12-20T23:50:14.580Z,28.60
2018-12-20T23:55:17.908Z,27.25
